createdAt,value
2016-12-17T00:00:06.581Z,1023.68
2016-12-17T00:01:21.775Z,1023.66
2016-12-17T00:03:15.899Z,1023.72
2016-12-17T00:04:45.787Z,1023.72
2016-12-17T00:06:00.640Z,1023.71
2016-12-17T00:07:34.487Z,1023.7
2016-12-17T00:09:36.441Z,1023.7
2016-12-17T00:11:10.847Z,1023.74
2016-12-17T00:12:45.786Z,1023.71
2016-12-17T00:14:19.262Z,1023.74
2016-12-17T00:15:52.637Z,1023.76
2016-12-17T00:17:27.014Z,1023.75
2016-12-17T00:19:00.835Z,1023.77
2016-12-17T00:22:35.605Z,1023.8
2016-12-17T00:24:10.216Z,1023.76
2016-12-17T00:25:44.869Z,1023.8
2016-12-17T00:27:38.317Z,1023.78
2016-12-17T00:29:12.383Z,1023.8
2016-12-17T00:30:46.153Z,1023.85
2016-12-17T00:32:19.459Z,1023.88
2016-12-17T00:33:53.786Z,1023.86
2016-12-17T00:35:28.017Z,1023.86
2016-12-17T00:37:02.185Z,1023.87
2016-12-17T00:38:36.465Z,1023.85
2016-12-17T00:40:11.791Z,1023.86
2016-12-17T00:41:42.626Z,1023.86
2016-12-17T00:43:45.987Z,1023.88
2016-12-17T00:45:19.825Z,1023.92
2016-12-17T00:46:53.939Z,1023.96
2016-12-17T00:48:27.635Z,1023.98
2016-12-17T00:49:56.280Z,1024.05
2016-12-17T00:51:29.952Z,1024.01
2016-12-17T00:53:04.996Z,1024.07
2016-12-17T00:54:38.757Z,1024.02
2016-12-17T00:56:12.017Z,1024.05
2016-12-17T00:57:46.560Z,1024.04
2016-12-17T00:59:20.837Z,1024.08
2016-12-17T01:00:54.431Z,1024.04
2016-12-17T01:02:47.386Z,1024.05
2016-12-17T01:04:20.708Z,1024.07
2016-12-17T01:05:54.284Z,1024
2016-12-17T01:07:28.249Z,1024.02
2016-12-17T01:09:01.540Z,1024.01
2016-12-17T01:10:35.302Z,1024.04
2016-12-17T01:12:09.494Z,1023.97
2016-12-17T01:13:43.189Z,1024.01
2016-12-17T01:15:12.055Z,1023.97
2016-12-17T01:16:46.347Z,1024.02
2016-12-17T01:18:19.995Z,1023.99
2016-12-17T01:19:53.667Z,1024.04
2016-12-17T01:21:27.538Z,1024.03
2016-12-17T01:23:00.908Z,1024.05
2016-12-17T01:24:34.562Z,1024
2016-12-17T01:26:08.371Z,1024.07
2016-12-17T01:27:41.647Z,1024.08
2016-12-17T01:31:47.727Z,1024.1
2016-12-17T01:33:21.022Z,1024.13
2016-12-17T01:34:54.543Z,1024.16
2016-12-17T01:36:28.399Z,1024.19
2016-12-17T01:38:02.179Z,1024.24
2016-12-17T01:39:36.011Z,1024.21
2016-12-17T01:41:09.440Z,1024.23
2016-12-17T01:42:43.049Z,1024.2
2016-12-17T01:44:17.265Z,1024.2
2016-12-17T01:45:50.959Z,1024.21
2016-12-17T01:47:24.498Z,1024.16
2016-12-17T01:48:59.470Z,1024.14
2016-12-17T01:50:52.534Z,1024.14
2016-12-17T01:52:26.341Z,1024.23
2016-12-17T01:54:00.120Z,1024.18
2016-12-17T01:55:34.933Z,1024.22
2016-12-17T01:57:08.868Z,1024.2
2016-12-17T01:58:42.246Z,1024.16
2016-12-17T02:00:15.933Z,1024.19
2016-12-17T02:01:49.430Z,1024.22
2016-12-17T02:03:24.434Z,1024.21
2016-12-17T02:04:58.455Z,1024.19
2016-12-17T02:06:51.699Z,1024.22
2016-12-17T02:08:24.978Z,1024.25
2016-12-17T02:09:59.291Z,1024.21
2016-12-17T02:11:32.690Z,1024.25
2016-12-17T02:13:06.279Z,1024.27
2016-12-17T02:14:39.570Z,1024.31
2016-12-17T02:16:13.446Z,1024.31
2016-12-17T02:17:47.050Z,1024.34
2016-12-17T02:19:20.846Z,1024.34
2016-12-17T02:20:57.188Z,1024.39
2016-12-17T02:22:31.280Z,1024.39
2016-12-17T02:24:04.654Z,1024.34
2016-12-17T02:25:37.997Z,1024.37
2016-12-17T02:27:31.674Z,1024.34
2016-12-17T02:29:05.008Z,1024.31
2016-12-17T02:30:38.783Z,1024.33
2016-12-17T02:32:12.152Z,1024.31
2016-12-17T02:33:45.638Z,1024.3
2016-12-17T02:35:19.293Z,1024.39
2016-12-17T02:36:53.240Z,1024.36
2016-12-17T02:38:26.624Z,1024.39
2016-12-17T02:40:00.531Z,1024.44
2016-12-17T02:41:34.047Z,1024.45
2016-12-17T02:43:07.845Z,1024.38
2016-12-17T02:44:41.390Z,1024.4
2016-12-17T02:46:14.802Z,1024.41
2016-12-17T02:47:48.382Z,1024.41
2016-12-17T02:49:22.402Z,1024.47
2016-12-17T02:50:55.654Z,1024.48
2016-12-17T02:52:29.250Z,1024.48
2016-12-17T02:54:22.275Z,1024.51
2016-12-17T02:55:56.044Z,1024.48
2016-12-17T02:57:29.375Z,1024.48
2016-12-17T02:59:03.343Z,1024.48
2016-12-17T03:00:37.346Z,1024.49
2016-12-17T03:02:11.342Z,1024.5
2016-12-17T03:03:45.394Z,1024.54
2016-12-17T03:05:19.442Z,1024.51
2016-12-17T03:06:52.921Z,1024.5
2016-12-17T03:08:26.876Z,1024.43
2016-12-17T03:10:00.384Z,1024.37
2016-12-17T03:11:34.693Z,1024.42
2016-12-17T03:13:07.966Z,1024.45
2016-12-17T03:14:41.351Z,1024.42
2016-12-17T03:16:14.977Z,1024.46
2016-12-17T03:18:07.743Z,1024.46
2016-12-17T03:19:44.368Z,1024.46
2016-12-17T03:20:58.463Z,1024.49
2016-12-17T03:22:51.545Z,1024.46
2016-12-17T03:24:25.742Z,1024.44
2016-12-17T03:25:59.323Z,1024.45
2016-12-17T03:27:32.674Z,1024.51
2016-12-17T03:29:06.336Z,1024.5
2016-12-17T03:30:39.915Z,1024.49
2016-12-17T03:32:13.950Z,1024.53
2016-12-17T03:33:47.578Z,1024.55
2016-12-17T03:35:21.094Z,1024.54
2016-12-17T03:36:54.891Z,1024.54
2016-12-17T03:38:28.195Z,1024.55
2016-12-17T03:40:01.823Z,1024.52
2016-12-17T03:41:35.118Z,1024.62
2016-12-17T03:43:03.682Z,1024.64
2016-12-17T03:44:37.706Z,1024.63
2016-12-17T03:46:11.053Z,1024.62
2016-12-17T03:47:40.119Z,1024.62
2016-12-17T03:49:13.816Z,1024.63
2016-12-17T03:50:47.747Z,1024.65
2016-12-17T03:52:21.411Z,1024.71
2016-12-17T03:53:55.029Z,1024.68
2016-12-17T03:55:29.035Z,1024.64
2016-12-17T03:57:02.433Z,1024.67
2016-12-17T03:58:33.664Z,1024.63
2016-12-17T04:00:07.627Z,1024.68
2016-12-17T04:01:41.807Z,1024.67
2016-12-17T04:03:15.435Z,1024.71
2016-12-17T04:04:48.865Z,1024.7
2016-12-17T04:06:22.842Z,1024.67
2016-12-17T04:07:56.800Z,1024.64
2016-12-17T04:09:30.481Z,1024.65
2016-12-17T04:11:03.785Z,1024.61
2016-12-17T04:12:37.144Z,1024.69
2016-12-17T04:14:30.972Z,1024.75
2016-12-17T04:16:04.218Z,1024.75
2016-12-17T04:17:37.989Z,1024.76
2016-12-17T04:19:11.597Z,1024.74
2016-12-17T04:20:46.522Z,1024.77
2016-12-17T04:22:19.782Z,1024.71
2016-12-17T04:23:53.120Z,1024.74
2016-12-17T04:25:26.685Z,1024.68
2016-12-17T04:27:00.412Z,1024.76
2016-12-17T04:28:34.643Z,1024.76
2016-12-17T04:30:07.921Z,1024.74
2016-12-17T04:31:41.224Z,1024.73
2016-12-17T04:33:14.787Z,1024.72
2016-12-17T04:34:48.355Z,1024.74
2016-12-17T04:36:22.344Z,1024.73
2016-12-17T04:37:55.625Z,1024.74
2016-12-17T04:39:29.113Z,1024.8
2016-12-17T04:41:02.479Z,1024.83
2016-12-17T04:42:36.312Z,1024.85
2016-12-17T04:44:29.243Z,1024.89
2016-12-17T04:46:02.843Z,1024.87
2016-12-17T04:47:36.780Z,1024.87
2016-12-17T04:49:10.317Z,1024.89
2016-12-17T04:50:44.795Z,1024.96
2016-12-17T04:52:18.380Z,1024.94
2016-12-17T04:53:52.249Z,1024.93
2016-12-17T04:55:25.550Z,1024.98
2016-12-17T04:56:58.898Z,1024.97
2016-12-17T04:58:32.958Z,1024.93
2016-12-17T05:00:06.248Z,1024.97
2016-12-17T05:01:39.581Z,1025.03
2016-12-17T05:03:12.918Z,1024.97
2016-12-17T05:04:46.993Z,1025.03
2016-12-17T05:06:20.594Z,1025.03
2016-12-17T05:07:54.557Z,1025.07
2016-12-17T05:09:28.420Z,1025.07
2016-12-17T05:11:02.020Z,1025.08
2016-12-17T05:12:35.399Z,1025.12
2016-12-17T05:14:08.861Z,1025.11
2016-12-17T05:15:42.588Z,1025.11
2016-12-17T05:17:16.925Z,1025.11
2016-12-17T05:18:50.432Z,1025.08
2016-12-17T05:20:23.812Z,1025.02
2016-12-17T05:21:57.175Z,1025.02
2016-12-17T05:23:31.356Z,1025.01
2016-12-17T05:25:04.634Z,1025.07
2016-12-17T05:26:38.485Z,1025.06
2016-12-17T05:28:31.876Z,1025.01
2016-12-17T05:30:05.601Z,1025.01
2016-12-17T05:31:38.983Z,1025.05
2016-12-17T05:33:12.699Z,1025.03
2016-12-17T05:34:46.294Z,1025.08
2016-12-17T05:36:23.061Z,1025.09
2016-12-17T05:37:56.747Z,1025.08
2016-12-17T05:39:30.372Z,1025.09
2016-12-17T05:41:04.008Z,1025.12
2016-12-17T05:42:37.571Z,1025.16
2016-12-17T05:45:41.626Z,1025.25
2016-12-17T05:47:15.004Z,1025.24
2016-12-17T05:48:48.942Z,1025.26
2016-12-17T05:50:22.946Z,1025.27
2016-12-17T05:51:56.563Z,1025.28
2016-12-17T05:55:31.988Z,1025.38
2016-12-17T05:57:06.772Z,1025.34
2016-12-17T05:58:59.265Z,1025.33
2016-12-17T06:00:32.758Z,1025.4
2016-12-17T06:02:06.450Z,1025.4
2016-12-17T06:03:40.005Z,1025.37
2016-12-17T06:05:13.664Z,1025.36
2016-12-17T06:06:47.159Z,1025.31
2016-12-17T06:08:20.865Z,1025.33
2016-12-17T06:09:54.368Z,1025.37
2016-12-17T06:11:28.116Z,1025.36
2016-12-17T06:13:01.882Z,1025.37
2016-12-17T06:14:35.860Z,1025.41
2016-12-17T06:16:09.573Z,1025.48
2016-12-17T06:17:42.837Z,1025.44
2016-12-17T06:19:16.170Z,1025.47
2016-12-17T06:20:50.680Z,1025.46
2016-12-17T06:22:24.234Z,1025.47
2016-12-17T06:23:52.435Z,1025.52
2016-12-17T06:25:25.731Z,1025.52
2016-12-17T06:26:59.391Z,1025.52
2016-12-17T06:28:33.076Z,1025.56
2016-12-17T06:30:06.382Z,1025.62
2016-12-17T06:31:39.666Z,1025.62
2016-12-17T06:33:14.020Z,1025.69
2016-12-17T06:34:47.549Z,1025.73
2016-12-17T06:36:21.221Z,1025.71
2016-12-17T06:37:54.637Z,1025.68
2016-12-17T06:39:47.362Z,1025.66
2016-12-17T06:41:21.106Z,1025.76
2016-12-17T06:42:54.883Z,1025.76
2016-12-17T06:44:28.674Z,1025.8
2016-12-17T06:46:02.243Z,1025.86
2016-12-17T06:47:36.341Z,1025.82
2016-12-17T06:49:09.946Z,1025.76
2016-12-17T06:50:44.227Z,1025.78
2016-12-17T06:52:12.783Z,1025.78
2016-12-17T06:53:46.326Z,1025.83
2016-12-17T06:55:19.673Z,1025.88
2016-12-17T06:56:53.267Z,1025.91
2016-12-17T06:58:26.605Z,1025.88
2016-12-17T07:00:01.010Z,1025.91
2016-12-17T07:01:34.263Z,1025.93
2016-12-17T07:03:07.836Z,1025.91
2016-12-17T07:04:41.090Z,1025.96
2016-12-17T07:06:15.010Z,1025.98
2016-12-17T07:07:48.546Z,1025.96
2016-12-17T07:09:22.201Z,1025.95
2016-12-17T07:10:56.615Z,1025.96
2016-12-17T07:12:30.207Z,1025.98
2016-12-17T07:14:57.158Z,1025.94
2016-12-17T07:16:31.266Z,1025.95
2016-12-17T07:18:05.330Z,1025.97
2016-12-17T07:19:38.606Z,1025.97
2016-12-17T07:21:11.926Z,1025.95
2016-12-17T07:22:46.206Z,1025.96
2016-12-17T07:24:19.997Z,1026
2016-12-17T07:25:54.127Z,1026.01
2016-12-17T07:27:27.414Z,1026
2016-12-17T07:29:01.255Z,1026.03
2016-12-17T07:30:35.530Z,1026
2016-12-17T07:32:32.448Z,1025.97
2016-12-17T07:34:05.913Z,1025.93
2016-12-17T07:35:43.791Z,1025.92
2016-12-17T07:37:18.483Z,1025.98
2016-12-17T07:38:51.979Z,1025.98
2016-12-17T07:40:27.023Z,1026
2016-12-17T07:42:21.085Z,1026.02
2016-12-17T07:43:54.728Z,1026.05
2016-12-17T07:45:28.426Z,1026.1
2016-12-17T07:47:02.321Z,1026.14
2016-12-17T07:48:37.611Z,1026.14
2016-12-17T07:50:15.174Z,1026.1
2016-12-17T07:51:48.945Z,1026.13
2016-12-17T07:53:43.842Z,1026.16
2016-12-17T07:57:20.215Z,1026.12
2016-12-17T07:58:53.439Z,1026.15
2016-12-17T08:00:23.442Z,1026.19
2016-12-17T08:01:37.891Z,1026.22
2016-12-17T08:03:31.379Z,1026.24
2016-12-17T08:05:05.846Z,1026.25
2016-12-17T08:06:39.899Z,1026.22
2016-12-17T08:08:13.310Z,1026.3
2016-12-17T08:09:46.875Z,1026.31
2016-12-17T08:11:20.431Z,1026.3
2016-12-17T08:12:55.405Z,1026.33
2016-12-17T08:14:28.775Z,1026.29
2016-12-17T08:16:02.293Z,1026.31
2016-12-17T08:17:35.795Z,1026.34
2016-12-17T08:19:09.244Z,1026.36
2016-12-17T08:20:42.977Z,1026.36
2016-12-17T08:22:16.531Z,1026.33
2016-12-17T08:23:50.343Z,1026.34
2016-12-17T08:25:18.507Z,1026.4
2016-12-17T08:26:46.874Z,1026.36
2016-12-17T08:28:20.432Z,1026.39
2016-12-17T08:29:54.232Z,1026.42
2016-12-17T08:31:27.832Z,1026.46
2016-12-17T08:33:01.372Z,1026.51
2016-12-17T08:34:35.412Z,1026.5
2016-12-17T08:36:09.447Z,1026.49
2016-12-17T08:37:42.681Z,1026.48
2016-12-17T08:39:16.355Z,1026.42
2016-12-17T08:40:49.974Z,1026.41
2016-12-17T08:42:23.494Z,1026.48
2016-12-17T08:43:56.756Z,1026.43
2016-12-17T08:45:30.938Z,1026.44
2016-12-17T08:47:04.219Z,1026.47
2016-12-17T08:48:37.714Z,1026.51
2016-12-17T08:50:12.339Z,1026.58
2016-12-17T08:52:05.091Z,1026.59
2016-12-17T08:53:36.218Z,1026.56
2016-12-17T08:55:09.818Z,1026.6
2016-12-17T08:58:25.487Z,1026.65
2016-12-17T08:59:59.298Z,1026.63
2016-12-17T09:01:33.057Z,1026.64
2016-12-17T09:03:25.631Z,1026.63
2016-12-17T09:04:59.510Z,1026.65
2016-12-17T09:06:33.139Z,1026.63
2016-12-17T09:08:07.275Z,1026.62
2016-12-17T09:09:40.983Z,1026.63
2016-12-17T09:11:15.114Z,1026.69
2016-12-17T09:12:49.094Z,1026.7
2016-12-17T09:14:17.951Z,1026.72
2016-12-17T09:15:51.901Z,1026.73
2016-12-17T09:17:25.170Z,1026.73
2016-12-17T09:18:59.321Z,1026.76
2016-12-17T09:20:33.389Z,1026.81
2016-12-17T09:22:07.467Z,1026.83
2016-12-17T09:23:41.691Z,1026.87
2016-12-17T09:25:15.037Z,1026.86
2016-12-17T09:26:48.960Z,1026.91
2016-12-17T09:28:22.846Z,1026.94
2016-12-17T09:29:56.560Z,1026.92
2016-12-17T09:31:49.903Z,1026.91
2016-12-17T09:33:24.981Z,1026.95
2016-12-17T09:34:58.536Z,1026.97
2016-12-17T09:36:32.779Z,1026.95
2016-12-17T09:38:06.949Z,1026.97
2016-12-17T09:48:10.897Z,1026.97
2016-12-17T09:49:25.163Z,1026.96
2016-12-17T09:50:39.275Z,1027.03
2016-12-17T09:51:55.254Z,1027
2016-12-17T09:53:10.920Z,1027.01
2016-12-17T09:54:27.208Z,1027
2016-12-17T09:55:43.159Z,1027.04
2016-12-17T09:56:58.872Z,1027.05
2016-12-17T09:58:13.262Z,1027.06
2016-12-17T09:59:27.369Z,1027.08
2016-12-17T10:00:41.974Z,1027.09
2016-12-17T10:01:58.365Z,1027.05
2016-12-17T10:03:13.141Z,1027.04
2016-12-17T10:04:28.277Z,1027.03
2016-12-17T10:05:42.494Z,1026.98
2016-12-17T10:06:58.230Z,1026.93
2016-12-17T10:08:12.906Z,1026.95
2016-12-17T10:09:27.254Z,1026.97
2016-12-17T10:10:41.449Z,1026.93
2016-12-17T10:11:55.910Z,1026.96
2016-12-17T10:13:10.525Z,1026.9
2016-12-17T10:14:24.891Z,1026.87
2016-12-17T10:15:39.747Z,1026.97
2016-12-17T10:16:54.188Z,1026.95
2016-12-17T10:18:08.724Z,1026.96
2016-12-17T10:19:24.136Z,1026.97
2016-12-17T10:20:39.098Z,1027.02
2016-12-17T10:21:53.533Z,1027.04
2016-12-17T10:23:07.951Z,1026.99
2016-12-17T10:24:22.205Z,1027.06
2016-12-17T10:25:37.575Z,1027.02
2016-12-17T10:26:57.386Z,1027.01
2016-12-17T10:28:12.161Z,1027
2016-12-17T10:29:26.348Z,1026.99
2016-12-17T10:30:40.994Z,1027.01
2016-12-17T10:31:55.837Z,1026.92
2016-12-17T10:33:12.454Z,1026.94
2016-12-17T10:34:27.729Z,1026.94
2016-12-17T10:35:42.679Z,1026.87
2016-12-17T10:36:56.981Z,1026.9
2016-12-17T10:38:12.365Z,1026.87
2016-12-17T10:39:26.694Z,1026.91
2016-12-17T10:40:41.086Z,1026.91
2016-12-17T10:41:55.611Z,1026.89
2016-12-17T10:43:10.186Z,1026.9
2016-12-17T10:44:25.467Z,1026.91
2016-12-17T10:45:41.358Z,1026.99
2016-12-17T10:46:56.159Z,1026.97
2016-12-17T10:48:11.088Z,1026.96
2016-12-17T10:49:25.464Z,1027
2016-12-17T10:50:40.596Z,1027
2016-12-17T10:51:56.573Z,1026.99
2016-12-17T10:53:11.714Z,1026.95
2016-12-17T10:54:26.348Z,1026.96
2016-12-17T10:55:42.294Z,1027.02
2016-12-17T10:56:57.578Z,1026.95
2016-12-17T10:58:12.830Z,1026.99
2016-12-17T10:59:27.682Z,1026.92
2016-12-17T11:00:43.505Z,1026.9
2016-12-17T11:01:58.279Z,1026.91
2016-12-17T11:03:13.338Z,1026.92
2016-12-17T11:04:27.631Z,1026.92
2016-12-17T11:05:41.908Z,1026.93
2016-12-17T11:06:56.778Z,1026.93
2016-12-17T11:08:11.520Z,1026.91
2016-12-17T11:09:26.212Z,1026.92
2016-12-17T11:10:41.208Z,1026.86
2016-12-17T11:11:55.391Z,1026.88
2016-12-17T11:13:09.879Z,1026.86
2016-12-17T11:14:23.988Z,1026.87
2016-12-17T11:15:38.715Z,1026.85
2016-12-17T11:16:52.993Z,1026.86
2016-12-17T11:18:07.585Z,1026.88
2016-12-17T11:19:21.782Z,1026.85
2016-12-17T11:20:51.293Z,1026.84
2016-12-17T11:22:05.981Z,1026.83
2016-12-17T11:23:20.037Z,1026.83
2016-12-17T11:24:34.164Z,1026.84
2016-12-17T11:25:48.323Z,1026.76
2016-12-17T11:27:02.802Z,1026.81
2016-12-17T11:28:17.444Z,1026.82
2016-12-17T11:29:31.763Z,1026.81
2016-12-17T11:30:46.264Z,1026.78
2016-12-17T11:32:00.657Z,1026.75
2016-12-17T11:33:14.993Z,1026.77
2016-12-17T11:34:29.373Z,1026.74
2016-12-17T11:35:43.540Z,1026.75
2016-12-17T11:36:58.496Z,1026.71
2016-12-17T11:38:14.884Z,1026.65
2016-12-17T11:39:29.097Z,1026.68
2016-12-17T11:40:44.092Z,1026.62
2016-12-17T11:41:58.778Z,1026.59
2016-12-17T11:43:13.369Z,1026.62
2016-12-17T11:44:29.883Z,1026.64
2016-12-17T11:45:45.081Z,1026.63
2016-12-17T11:47:02.254Z,1026.62
2016-12-17T11:48:31.869Z,1026.58
2016-12-17T11:49:45.986Z,1026.56
2016-12-17T11:51:00.414Z,1026.57
2016-12-17T11:52:15.095Z,1026.61
2016-12-17T11:53:29.337Z,1026.63
2016-12-17T11:54:43.572Z,1026.59
2016-12-17T11:55:58.270Z,1026.6
2016-12-17T11:57:12.394Z,1026.63
2016-12-17T11:58:26.866Z,1026.67
2016-12-17T11:59:41.078Z,1026.66
2016-12-17T12:00:55.288Z,1026.67
2016-12-17T12:02:09.756Z,1026.69
2016-12-17T12:03:24.128Z,1026.7
2016-12-17T12:04:38.780Z,1026.68
2016-12-17T12:05:53.078Z,1026.65
2016-12-17T12:07:07.853Z,1026.65
2016-12-17T12:08:22.205Z,1026.65
2016-12-17T12:09:36.290Z,1026.67
2016-12-17T12:10:50.713Z,1026.71
2016-12-17T12:12:05.296Z,1026.65
2016-12-17T12:13:19.843Z,1026.6
2016-12-17T12:14:34.435Z,1026.61
2016-12-17T12:15:48.557Z,1026.57
2016-12-17T12:17:02.919Z,1026.53
2016-12-17T12:18:17.806Z,1026.55
2016-12-17T12:19:31.990Z,1026.53
2016-12-17T12:20:46.362Z,1026.51
2016-12-17T12:22:00.514Z,1026.55
2016-12-17T12:23:14.884Z,1026.59
2016-12-17T12:24:29.299Z,1026.54
2016-12-17T12:25:43.390Z,1026.47
2016-12-17T12:26:58.053Z,1026.5
2016-12-17T12:28:12.305Z,1026.51
2016-12-17T12:29:26.552Z,1026.49
2016-12-17T12:30:41.344Z,1026.48
2016-12-17T12:31:55.734Z,1026.53
2016-12-17T12:33:10.088Z,1026.56
2016-12-17T12:34:24.283Z,1026.53
2016-12-17T12:35:38.764Z,1026.52
2016-12-17T12:36:53.188Z,1026.49
2016-12-17T12:38:07.276Z,1026.52
2016-12-17T12:39:21.669Z,1026.46
2016-12-17T12:40:35.892Z,1026.54
2016-12-17T12:41:50.570Z,1026.51
2016-12-17T12:43:06.560Z,1026.5
2016-12-17T12:44:20.694Z,1026.48
2016-12-17T12:45:34.759Z,1026.47
2016-12-17T12:47:03.830Z,1026.48
2016-12-17T12:48:18.532Z,1026.48
2016-12-17T12:49:32.904Z,1026.45
2016-12-17T12:50:46.963Z,1026.47
2016-12-17T12:52:01.109Z,1026.44
2016-12-17T12:53:15.639Z,1026.45
2016-12-17T12:54:30.009Z,1026.5
2016-12-17T12:55:44.635Z,1026.51
2016-12-17T12:56:58.881Z,1026.56
2016-12-17T12:58:14.266Z,1026.53
2016-12-17T12:59:29.830Z,1026.52
2016-12-17T13:00:44.955Z,1026.51
2016-12-17T13:02:02.379Z,1026.49
2016-12-17T13:03:16.518Z,1026.55
2016-12-17T13:04:30.746Z,1026.55
2016-12-17T13:05:45.334Z,1026.59
2016-12-17T13:07:00.441Z,1026.59
2016-12-17T13:08:17.362Z,1026.55
2016-12-17T13:09:33.015Z,1026.52
2016-12-17T13:10:47.095Z,1026.5
2016-12-17T13:12:01.541Z,1026.55
2016-12-17T13:13:16.240Z,1026.54
2016-12-17T13:14:30.792Z,1026.55
2016-12-17T13:15:45.717Z,1026.52
2016-12-17T13:17:14.926Z,1026.54
2016-12-17T13:18:29.711Z,1026.52
2016-12-17T13:19:44.528Z,1026.51
2016-12-17T13:20:59.329Z,1026.52
2016-12-17T13:22:14.119Z,1026.51
2016-12-17T13:23:29.878Z,1026.47
2016-12-17T13:24:44.539Z,1026.5
2016-12-17T13:25:58.678Z,1026.53
2016-12-17T13:28:42.630Z,1026.54
2016-12-17T13:29:57.845Z,1026.51
2016-12-17T13:31:12.968Z,1026.53
2016-12-17T13:32:28.071Z,1026.5
2016-12-17T13:35:11.886Z,1026.45
2016-12-17T13:36:26.612Z,1026.47
2016-12-17T13:37:42.783Z,1026.42
2016-12-17T13:38:57.476Z,1026.42
2016-12-17T13:40:12.732Z,1026.43
2016-12-17T13:41:29.173Z,1026.45
2016-12-17T13:42:45.250Z,1026.46
2016-12-17T13:43:59.492Z,1026.49
2016-12-17T13:45:14.065Z,1026.49
2016-12-17T13:46:28.636Z,1026.52
2016-12-17T13:47:43.101Z,1026.49
2016-12-17T13:48:57.768Z,1026.51
2016-12-17T13:50:13.343Z,1026.47
2016-12-17T13:51:27.847Z,1026.41
2016-12-17T13:52:42.959Z,1026.46
2016-12-17T13:53:58.861Z,1026.48
2016-12-17T13:55:13.262Z,1026.5
2016-12-17T13:56:27.487Z,1026.52
2016-12-17T13:57:43.702Z,1026.53
2016-12-17T13:58:59.240Z,1026.54
2016-12-17T14:00:14.493Z,1026.53
2016-12-17T14:01:30.634Z,1026.54
2016-12-17T14:02:44.841Z,1026.55
2016-12-17T14:03:59.297Z,1026.5
2016-12-17T14:05:14.067Z,1026.49
2016-12-17T14:06:29.420Z,1026.56
2016-12-17T14:07:44.041Z,1026.49
2016-12-17T14:08:58.711Z,1026.5
2016-12-17T14:10:16.701Z,1026.53
2016-12-17T14:11:33.659Z,1026.59
2016-12-17T14:12:50.420Z,1026.63
2016-12-17T14:14:07.118Z,1026.62
2016-12-17T14:15:23.921Z,1026.64
2016-12-17T14:16:40.054Z,1026.62
2016-12-17T14:17:56.247Z,1026.63
2016-12-17T14:19:12.514Z,1026.65
2016-12-17T14:20:31.463Z,1026.63
2016-12-17T14:21:46.534Z,1026.64
2016-12-17T14:23:02.948Z,1026.62
2016-12-17T14:24:18.918Z,1026.65
2016-12-17T14:25:33.477Z,1026.61
2016-12-17T14:26:48.433Z,1026.63
2016-12-17T14:28:02.806Z,1026.64
2016-12-17T14:29:17.506Z,1026.61
2016-12-17T14:30:32.785Z,1026.63
2016-12-17T14:31:47.318Z,1026.62
2016-12-17T14:33:01.454Z,1026.67
2016-12-17T14:34:15.524Z,1026.73
2016-12-17T14:35:29.686Z,1026.73
2016-12-17T14:36:43.983Z,1026.76
2016-12-17T14:37:58.623Z,1026.79
2016-12-17T14:39:12.722Z,1026.82
2016-12-17T14:40:26.835Z,1026.81
2016-12-17T14:41:40.996Z,1026.82
2016-12-17T14:42:55.214Z,1026.83
2016-12-17T14:44:10.168Z,1026.83
2016-12-17T14:45:24.697Z,1026.8
2016-12-17T14:46:39.577Z,1026.83
2016-12-17T14:47:53.717Z,1026.77
2016-12-17T14:49:08.296Z,1026.84
2016-12-17T14:50:22.800Z,1026.79
2016-12-17T14:51:37.784Z,1026.8
2016-12-17T14:52:51.934Z,1026.79
2016-12-17T14:54:06.494Z,1026.81
2016-12-17T14:55:20.946Z,1026.86
2016-12-17T14:56:35.373Z,1026.85
2016-12-17T14:57:49.843Z,1026.9
2016-12-17T14:59:04.265Z,1026.96
2016-12-17T15:00:18.514Z,1026.97
2016-12-17T15:01:32.964Z,1026.98
2016-12-17T15:02:47.316Z,1027.03
2016-12-17T15:04:01.659Z,1027.05
2016-12-17T15:05:15.874Z,1027.03
2016-12-17T15:06:30.197Z,1027
2016-12-17T15:07:44.823Z,1026.91
2016-12-17T15:08:59.246Z,1026.9
2016-12-17T15:10:13.668Z,1026.86
2016-12-17T15:11:27.755Z,1026.82
2016-12-17T15:12:42.332Z,1026.8
2016-12-17T15:13:56.547Z,1026.82
2016-12-17T15:15:11.202Z,1026.83
2016-12-17T15:16:25.367Z,1026.83
2016-12-17T15:17:41.220Z,1026.87
2016-12-17T15:18:55.353Z,1026.88
2016-12-17T15:20:09.642Z,1026.9
2016-12-17T15:21:23.965Z,1026.91
2016-12-17T15:22:38.535Z,1026.94
2016-12-17T15:23:53.139Z,1026.95
2016-12-17T15:25:07.205Z,1026.96
2016-12-17T15:26:21.525Z,1026.96
2016-12-17T15:27:35.947Z,1026.95
2016-12-17T15:28:50.135Z,1026.98
2016-12-17T15:30:04.572Z,1027.01
2016-12-17T15:31:19.274Z,1027
2016-12-17T15:32:33.725Z,1027
2016-12-17T15:33:48.526Z,1026.97
2016-12-17T15:35:02.691Z,1026.97
2016-12-17T15:36:16.776Z,1026.99
2016-12-17T15:37:33.804Z,1027.11
2016-12-17T15:38:48.244Z,1027.09
2016-12-17T15:40:02.589Z,1027.1
2016-12-17T15:41:16.671Z,1027.04
2016-12-17T15:42:30.802Z,1027.01
2016-12-17T15:43:45.506Z,1026.94
2016-12-17T15:44:59.735Z,1026.92
2016-12-17T15:46:14.069Z,1026.93
2016-12-17T15:47:28.257Z,1026.9
2016-12-17T15:50:11.470Z,1026.92
2016-12-17T15:51:25.894Z,1026.91
2016-12-17T15:52:40.112Z,1026.86
2016-12-17T15:53:54.529Z,1026.87
2016-12-17T15:55:08.667Z,1026.82
2016-12-17T15:56:23.097Z,1026.84
2016-12-17T15:57:52.541Z,1026.87
2016-12-17T15:59:06.638Z,1026.86
2016-12-17T16:00:21.511Z,1026.85
2016-12-17T16:01:36.260Z,1026.86
2016-12-17T16:02:50.376Z,1026.84
2016-12-17T16:04:05.078Z,1026.84
2016-12-17T16:05:19.545Z,1026.83
2016-12-17T16:06:34.029Z,1026.86
2016-12-17T16:07:49.122Z,1026.94
2016-12-17T16:09:03.765Z,1026.89
2016-12-17T16:10:18.079Z,1026.93
2016-12-17T16:11:46.972Z,1026.95
2016-12-17T16:13:01.220Z,1027
2016-12-17T16:14:15.684Z,1027.02
2016-12-17T16:15:30.641Z,1027.04
2016-12-17T16:16:45.113Z,1027.05
2016-12-17T16:17:59.524Z,1026.96
2016-12-17T16:19:13.754Z,1026.98
2016-12-17T16:20:28.232Z,1026.93
2016-12-17T16:21:42.791Z,1026.96
2016-12-17T16:22:58.396Z,1027.02
2016-12-17T16:24:12.980Z,1027.04
2016-12-17T16:25:29.472Z,1027.03
2016-12-17T16:26:52.769Z,1027.11
2016-12-17T16:28:07.324Z,1027.11
2016-12-17T16:29:21.830Z,1027.15
2016-12-17T16:30:35.950Z,1027.17
2016-12-17T16:31:50.687Z,1027.19
2016-12-17T16:34:48.795Z,1027.28
2016-12-17T16:36:03.476Z,1027.27
2016-12-17T16:37:17.933Z,1027.28
2016-12-17T16:38:32.344Z,1027.25
2016-12-17T16:39:46.543Z,1027.25
2016-12-17T16:41:01.034Z,1027.24
2016-12-17T16:42:15.823Z,1027.24
2016-12-17T16:43:30.273Z,1027.29
2016-12-17T16:44:44.740Z,1027.31
2016-12-17T16:45:59.243Z,1027.35
2016-12-17T16:47:13.383Z,1027.3
2016-12-17T16:48:28.540Z,1027.27
2016-12-17T16:49:42.654Z,1027.31
2016-12-17T16:50:56.760Z,1027.32
2016-12-17T16:52:11.969Z,1027.35
2016-12-17T16:53:26.607Z,1027.33
2016-12-17T16:54:41.261Z,1027.32
2016-12-17T16:55:57.907Z,1027.32
2016-12-17T16:57:12.095Z,1027.34
2016-12-17T16:58:26.207Z,1027.38
2016-12-17T16:59:40.606Z,1027.37
2016-12-17T17:00:55.599Z,1027.34
2016-12-17T17:02:09.783Z,1027.33
2016-12-17T17:03:24.253Z,1027.34
2016-12-17T17:04:38.695Z,1027.38
2016-12-17T17:05:52.857Z,1027.36
2016-12-17T17:07:07.276Z,1027.39
2016-12-17T17:08:21.709Z,1027.38
2016-12-17T17:09:36.093Z,1027.38
2016-12-17T17:10:50.216Z,1027.32
2016-12-17T17:13:35.002Z,1027.26
2016-12-17T17:15:03.988Z,1027.27
2016-12-17T17:16:18.111Z,1027.2
2016-12-17T17:17:32.270Z,1027.28
2016-12-17T17:18:46.665Z,1027.27
2016-12-17T17:20:01.054Z,1027.28
2016-12-17T17:21:15.144Z,1027.28
2016-12-17T17:22:29.666Z,1027.23
2016-12-17T17:23:44.117Z,1027.27
2016-12-17T17:24:58.752Z,1027.26
2016-12-17T17:26:13.157Z,1027.22
2016-12-17T17:27:27.592Z,1027.2
2016-12-17T17:28:42.247Z,1027.23
2016-12-17T17:29:56.784Z,1027.26
2016-12-17T17:31:11.476Z,1027.22
2016-12-17T17:32:25.963Z,1027.21
2016-12-17T17:33:40.513Z,1027.16
2016-12-17T17:34:54.652Z,1027.21
2016-12-17T17:36:08.952Z,1027.24
2016-12-17T17:37:23.608Z,1027.24